createdAt,value
2018-12-06T00:00:13.692Z,17.53
2018-12-06T00:02:42.170Z,18.53
2018-12-06T00:05:10.859Z,19.07
2018-12-06T00:07:45.905Z,17.07
2018-12-06T00:10:14.593Z,17.97
2018-12-06T00:12:43.657Z,18.17
2018-12-06T00:15:24.896Z,18.43
2018-12-06T00:17:53.412Z,18.70
2018-12-06T00:20:21.905Z,20.07
2018-12-06T00:22:50.898Z,19.80
2018-12-06T00:25:19.923Z,18.47
2018-12-06T00:27:48.513Z,20.40
2018-12-06T00:30:29.190Z,19.90
2018-12-06T00:32:58.192Z,19.33
2018-12-06T00:35:26.672Z,18.70
2018-12-06T00:37:55.801Z,18.83
2018-12-06T00:40:24.883Z,19.30
2018-12-06T00:42:53.341Z,20.70
2018-12-06T00:45:21.867Z,19.37
2018-12-06T00:47:50.393Z,20.67
2018-12-06T00:50:19.094Z,17.13
2018-12-06T00:52:47.573Z,19.80
2018-12-06T00:55:16.465Z,18.57
2018-12-06T00:57:45.505Z,19.20
2018-12-06T01:00:14.801Z,19.43
2018-12-06T01:02:43.377Z,20.27
2018-12-06T01:05:12.800Z,19.33
2018-12-06T01:07:41.283Z,19.10
2018-12-06T01:10:09.936Z,19.27
2018-12-06T01:12:38.569Z,19.57
2018-12-06T01:15:07.105Z,19.17
2018-12-06T01:17:36.385Z,17.50
2018-12-06T01:20:05.827Z,18.47
2018-12-06T01:22:34.771Z,19.67
2018-12-06T01:25:03.292Z,19.70
2018-12-06T01:27:31.785Z,19.67
2018-12-06T01:30:00.299Z,20.07
2018-12-06T01:32:28.815Z,18.67
2018-12-06T01:34:57.385Z,18.60
2018-12-06T01:37:25.920Z,19.07
2018-12-06T01:39:54.416Z,18.43
2018-12-06T01:42:22.996Z,17.27
2018-12-06T01:44:52.369Z,16.93
2018-12-06T01:47:20.862Z,17.00
2018-12-06T01:49:49.400Z,16.93
2018-12-06T01:52:18.027Z,18.30
2018-12-06T01:54:46.559Z,17.57
2018-12-06T01:57:15.117Z,17.53
2018-12-06T01:59:43.755Z,17.67
2018-12-06T02:02:12.989Z,18.50
2018-12-06T02:04:42.067Z,17.90
2018-12-06T02:07:10.609Z,17.33
2018-12-06T02:09:39.068Z,16.90
2018-12-06T02:12:07.685Z,17.37
2018-12-06T02:14:38.433Z,17.57
2018-12-06T02:17:07.208Z,16.37
2018-12-06T02:19:35.656Z,17.13
2018-12-06T02:22:05.097Z,16.93
2018-12-06T02:24:33.546Z,16.33
2018-12-06T02:27:02.016Z,16.17
2018-12-06T02:29:35.855Z,16.50
2018-12-06T02:32:05.168Z,14.53
2018-12-06T02:34:33.669Z,14.67
2018-12-06T02:37:02.491Z,14.70
2018-12-06T02:39:31.027Z,15.00
2018-12-06T02:41:59.505Z,14.50
2018-12-06T02:44:28.950Z,14.17
2018-12-06T02:46:57.472Z,12.43
2018-12-06T02:49:25.936Z,13.93
2018-12-06T02:51:54.562Z,12.40
2018-12-06T02:54:23.117Z,13.80
2018-12-06T02:56:51.781Z,12.90
2018-12-06T02:59:20.228Z,13.67
2018-12-06T03:01:48.766Z,13.00
2018-12-06T03:04:17.272Z,14.40
2018-12-06T03:06:45.805Z,14.10
2018-12-06T03:09:14.366Z,13.93
2018-12-06T03:11:42.944Z,14.53
2018-12-06T03:14:11.515Z,15.53
2018-12-06T03:16:40.041Z,13.93
2018-12-06T03:19:08.681Z,14.07
2018-12-06T03:21:37.285Z,14.53
2018-12-06T03:24:05.894Z,14.87
2018-12-06T03:26:34.392Z,15.17
2018-12-06T03:29:02.953Z,14.87
2018-12-06T03:31:31.486Z,14.13
2018-12-06T03:33:59.955Z,14.10
2018-12-06T03:36:28.502Z,14.27
2018-12-06T03:38:57.077Z,13.83
2018-12-06T03:41:25.713Z,14.97
2018-12-06T03:43:54.241Z,12.97
2018-12-06T03:46:22.727Z,13.83
2018-12-06T03:48:51.361Z,14.83
2018-12-06T03:51:20.273Z,13.90
2018-12-06T03:53:48.755Z,12.07
2018-12-06T03:56:17.377Z,11.63
2018-12-06T03:58:46.880Z,12.83
2018-12-06T04:01:15.400Z,11.63
2018-12-06T04:03:43.919Z,10.67
2018-12-06T04:06:12.417Z,11.33
2018-12-06T04:08:41.046Z,10.13
2018-12-06T04:11:09.861Z,9.10
2018-12-06T04:13:38.313Z,10.13
2018-12-06T04:16:06.852Z,8.33
2018-12-06T04:18:35.364Z,8.83
2018-12-06T04:21:04.229Z,7.80
2018-12-06T04:23:32.741Z,7.00
2018-12-06T04:26:01.472Z,7.43
2018-12-06T04:28:29.953Z,7.50
2018-12-06T04:30:58.396Z,7.43
2018-12-06T04:33:26.900Z,6.83
2018-12-06T04:35:55.441Z,6.67
2018-12-06T04:38:24.062Z,7.27
2018-12-06T04:40:52.697Z,6.53
2018-12-06T04:43:21.268Z,6.93
2018-12-06T04:45:50.200Z,6.40
2018-12-06T04:48:22.035Z,6.83
2018-12-06T04:50:49.713Z,7.00
2018-12-06T04:53:18.854Z,6.67
2018-12-06T04:55:47.480Z,5.60
2018-12-06T04:58:16.116Z,6.83
2018-12-06T05:00:44.738Z,5.77
2018-12-06T05:03:13.378Z,5.20
2018-12-06T05:05:42.209Z,6.00
2018-12-06T05:08:10.769Z,5.60
2018-12-06T05:10:39.405Z,6.03
2018-12-06T05:13:08.004Z,5.83
2018-12-06T05:15:36.570Z,6.50
2018-12-06T05:18:05.440Z,6.50
2018-12-06T05:20:34.185Z,6.03
2018-12-06T05:23:02.792Z,5.97
2018-12-06T05:25:31.581Z,5.97
2018-12-06T05:28:00.179Z,6.30
2018-12-06T05:30:28.730Z,7.20
2018-12-06T05:32:57.283Z,5.53
2018-12-06T05:35:25.854Z,6.80
2018-12-06T05:37:54.428Z,6.20
2018-12-06T05:40:22.932Z,6.10
2018-12-06T05:42:52.012Z,6.87
2018-12-06T05:45:21.203Z,6.87
2018-12-06T05:47:49.745Z,7.13
2018-12-06T05:50:18.332Z,6.60
2018-12-06T05:52:46.939Z,6.17
2018-12-06T05:55:15.606Z,7.03
2018-12-06T05:57:44.164Z,6.37
2018-12-06T06:00:12.806Z,6.53
2018-12-06T06:02:41.994Z,6.97
2018-12-06T06:05:10.604Z,7.33
2018-12-06T06:07:39.215Z,7.47
2018-12-06T06:10:08.505Z,7.63
2018-12-06T06:12:37.071Z,7.43
2018-12-06T06:15:06.213Z,7.67
2018-12-06T06:17:34.835Z,6.90
2018-12-06T06:20:03.559Z,7.60
2018-12-06T06:22:32.320Z,6.83
2018-12-06T06:25:00.872Z,7.53
2018-12-06T06:27:29.444Z,8.13
2018-12-06T06:29:58.547Z,7.57
2018-12-06T06:32:27.771Z,7.53
2018-12-06T06:34:56.377Z,8.83
2018-12-06T06:37:24.884Z,7.80
2018-12-06T06:39:53.543Z,7.93
2018-12-06T06:42:22.156Z,7.50
2018-12-06T06:44:50.699Z,8.33
2018-12-06T06:47:19.580Z,7.43
2018-12-06T06:49:48.205Z,8.83
2018-12-06T06:52:16.838Z,10.97
2018-12-06T06:54:46.151Z,8.93
2018-12-06T06:57:14.839Z,9.50
2018-12-06T06:59:45.161Z,9.47
2018-12-06T07:02:14.156Z,9.80
2018-12-06T07:04:42.649Z,9.47
2018-12-06T07:07:12.349Z,8.80
2018-12-06T07:09:40.990Z,9.73
2018-12-06T07:12:09.807Z,9.70
2018-12-06T07:14:39.018Z,8.47
2018-12-06T07:17:07.781Z,9.30
2018-12-06T07:19:36.325Z,10.77
2018-12-06T07:22:04.901Z,10.07
2018-12-06T07:24:33.460Z,9.67
2018-12-06T07:27:02.130Z,8.70
2018-12-06T07:29:30.726Z,9.83
2018-12-06T07:31:59.236Z,10.03
2018-12-06T07:34:27.862Z,9.30
2018-12-06T07:36:57.132Z,8.80
2018-12-06T07:39:26.092Z,10.00
2018-12-06T07:41:54.695Z,11.00
2018-12-06T07:44:23.248Z,9.90
2018-12-06T07:46:53.580Z,10.43
2018-12-06T07:49:22.378Z,9.50
2018-12-06T07:51:51.711Z,10.00
2018-12-06T07:54:20.263Z,9.17
2018-12-06T07:56:48.834Z,14.30
2018-12-06T07:59:17.725Z,13.43
2018-12-06T08:01:46.334Z,12.00
2018-12-06T08:04:15.010Z,12.20
2018-12-06T08:06:43.568Z,11.33
2018-12-06T08:09:12.165Z,14.13
2018-12-06T08:11:40.705Z,12.93
2018-12-06T08:14:09.228Z,13.37
2018-12-06T08:16:38.391Z,15.97
2018-12-06T08:19:06.901Z,14.87
2018-12-06T08:21:35.456Z,13.37
2018-12-06T08:24:05.385Z,12.97
2018-12-06T08:26:33.966Z,12.07
2018-12-06T08:29:02.732Z,11.40
2018-12-06T08:31:32.688Z,12.20
2018-12-06T08:34:06.156Z,10.93
2018-12-06T08:36:31.934Z,12.40
2018-12-06T08:39:00.843Z,12.47
2018-12-06T08:41:29.486Z,18.87
2018-12-06T08:43:58.023Z,12.13
2018-12-06T08:46:26.561Z,11.80
2018-12-06T08:48:55.111Z,10.57
2018-12-06T08:51:23.840Z,10.80
2018-12-06T08:53:52.374Z,10.83
2018-12-06T08:56:20.917Z,9.53
2018-12-06T08:58:49.755Z,10.13
2018-12-06T09:01:18.522Z,11.67
2018-12-06T09:03:47.373Z,11.00
2018-12-06T09:06:16.833Z,10.87
2018-12-06T09:08:45.504Z,9.30
2018-12-06T09:11:14.473Z,9.73
2018-12-06T09:13:43.607Z,9.93
2018-12-06T09:16:12.365Z,9.07
2018-12-06T09:18:40.909Z,9.43
2018-12-06T09:21:09.520Z,9.23
2018-12-06T09:23:38.516Z,10.80
2018-12-06T09:26:07.193Z,11.57
2018-12-06T09:28:36.439Z,12.50
2018-12-06T09:31:06.445Z,10.40
2018-12-06T09:33:45.087Z,10.67
2018-12-06T09:36:14.653Z,10.67
2018-12-06T09:38:43.878Z,10.63
2018-12-06T09:41:12.506Z,10.73
2018-12-06T09:43:41.105Z,11.50
2018-12-06T09:46:11.061Z,10.80
2018-12-06T09:48:39.635Z,11.67
2018-12-06T09:51:08.260Z,11.60
2018-12-06T09:53:36.803Z,12.23
2018-12-06T09:56:05.457Z,10.60
2018-12-06T09:58:34.076Z,11.10
2018-12-06T10:01:02.734Z,10.87
2018-12-06T10:03:31.268Z,22.03
2018-12-06T10:05:59.917Z,13.17
2018-12-06T10:08:28.463Z,12.43
2018-12-06T10:10:57.088Z,10.80
2018-12-06T10:13:25.654Z,11.10
2018-12-06T10:15:56.770Z,10.60
2018-12-06T10:18:26.009Z,10.30
2018-12-06T10:20:54.896Z,11.50
2018-12-06T10:23:25.719Z,11.77
2018-12-06T10:25:54.454Z,12.57
2018-12-06T10:28:23.046Z,13.47
2018-12-06T10:30:52.014Z,12.13
2018-12-06T10:33:21.105Z,11.47
2018-12-06T10:35:50.168Z,12.47
2018-12-06T10:38:19.762Z,12.17
2018-12-06T10:40:49.309Z,13.00
2018-12-06T10:43:17.944Z,11.83
2018-12-06T10:45:47.404Z,13.17
2018-12-06T10:48:16.004Z,11.80
2018-12-06T10:50:44.685Z,14.67
2018-12-06T10:53:13.326Z,12.90
2018-12-06T10:55:43.201Z,15.67
2018-12-06T10:58:13.119Z,15.17
2018-12-06T11:00:47.993Z,15.23
2018-12-06T11:03:25.452Z,13.67
2018-12-06T11:05:54.208Z,13.53
2018-12-06T11:08:22.737Z,12.67
2018-12-06T11:10:51.349Z,13.37
2018-12-06T11:13:20.376Z,18.33
2018-12-06T11:15:49.496Z,13.57
2018-12-06T11:18:18.465Z,13.87
2018-12-06T11:20:47.117Z,13.37
2018-12-06T11:23:15.707Z,13.50
2018-12-06T11:25:44.232Z,14.70
2018-12-06T11:28:12.798Z,14.10
2018-12-06T11:30:41.721Z,13.93
2018-12-06T11:33:10.230Z,14.13
2018-12-06T11:35:38.772Z,15.53
2018-12-06T11:38:07.512Z,14.37
2018-12-06T11:40:36.112Z,14.10
2018-12-06T11:43:04.763Z,14.47
2018-12-06T11:45:33.373Z,14.93
2018-12-06T11:48:02.012Z,14.03
2018-12-06T11:50:31.209Z,14.60
2018-12-06T11:52:59.790Z,14.67
2018-12-06T11:55:29.151Z,13.40
2018-12-06T11:57:58.732Z,13.23
2018-12-06T12:00:27.881Z,12.00
2018-12-06T12:02:56.913Z,13.10
2018-12-06T12:05:25.408Z,11.83
2018-12-06T12:07:54.079Z,11.30
2018-12-06T12:10:23.232Z,10.07
2018-12-06T12:12:52.450Z,10.57
2018-12-06T12:15:21.114Z,7.83
2018-12-06T12:17:49.707Z,8.13
2018-12-06T12:20:18.317Z,7.23
2018-12-06T12:22:46.893Z,5.90
2018-12-06T12:25:15.424Z,8.07
2018-12-06T12:27:44.222Z,6.00
2018-12-06T12:30:13.038Z,5.83
2018-12-06T12:32:41.797Z,5.23
2018-12-06T12:35:10.400Z,5.17
2018-12-06T12:37:46.139Z,4.67
2018-12-06T12:40:15.797Z,4.83
2018-12-06T12:42:44.332Z,5.10
2018-12-06T12:45:13.054Z,4.70
2018-12-06T12:47:41.991Z,5.97
2018-12-06T12:50:10.606Z,3.80
2018-12-06T12:52:39.389Z,4.07
2018-12-06T12:55:08.000Z,3.80
2018-12-06T12:57:36.459Z,4.53
2018-12-06T13:00:06.203Z,4.57
2018-12-06T13:02:35.556Z,4.23
2018-12-06T13:05:04.613Z,3.43
2018-12-06T13:07:33.877Z,3.70
2018-12-06T13:10:02.453Z,3.67
2018-12-06T13:12:31.787Z,3.63
2018-12-06T13:15:00.400Z,3.60
2018-12-06T13:17:29.270Z,2.90
2018-12-06T13:19:58.168Z,3.00
2018-12-06T13:22:26.746Z,3.30
2018-12-06T13:24:56.275Z,3.20
2018-12-06T13:27:25.040Z,3.07
2018-12-06T13:29:53.906Z,2.43
2018-12-06T13:32:22.666Z,2.10
2018-12-06T13:34:51.552Z,2.20
2018-12-06T13:37:20.847Z,2.53
2018-12-06T13:39:49.587Z,2.93
2018-12-06T13:42:23.505Z,2.60
2018-12-06T13:44:49.864Z,2.50
2018-12-06T13:47:18.411Z,2.60
2018-12-06T13:49:47.056Z,2.70
2018-12-06T13:52:15.668Z,3.07
2018-12-06T13:54:45.201Z,3.23
2018-12-06T13:57:14.649Z,3.83
2018-12-06T13:59:43.420Z,3.63
2018-12-06T14:02:19.640Z,3.87
2018-12-06T14:04:48.602Z,3.10
2018-12-06T14:07:18.431Z,2.67
2018-12-06T14:09:48.153Z,1.73
2018-12-06T14:12:17.306Z,2.00
2018-12-06T14:14:46.537Z,1.83
2018-12-06T14:17:15.179Z,1.63
2018-12-06T14:19:43.845Z,1.60
2018-12-06T14:22:12.458Z,1.97
2018-12-06T14:24:40.971Z,2.70
2018-12-06T14:27:09.789Z,2.10
2018-12-06T14:29:38.536Z,1.60
2018-12-06T14:32:07.602Z,1.83
2018-12-06T14:34:36.815Z,1.77
2018-12-06T14:37:06.279Z,1.47
2018-12-06T14:39:34.981Z,3.03
2018-12-06T14:42:04.313Z,1.50
2018-12-06T14:44:33.091Z,1.30
2018-12-06T14:47:02.046Z,1.57
2018-12-06T14:49:30.619Z,1.77
2018-12-06T14:51:59.265Z,1.70
2018-12-06T14:54:28.487Z,1.57
2018-12-06T14:56:58.066Z,1.57
2018-12-06T14:59:27.659Z,2.00
2018-12-06T15:01:56.553Z,2.07
2018-12-06T15:04:26.396Z,1.90
2018-12-06T15:07:04.239Z,1.83
2018-12-06T15:09:49.220Z,2.00
2018-12-06T15:12:27.256Z,3.47
2018-12-06T15:20:43.131Z,3.30
2018-12-06T15:23:12.347Z,4.20
2018-12-06T15:25:42.035Z,4.60
2018-12-06T15:28:11.221Z,5.47
2018-12-06T15:30:42.190Z,5.60
2018-12-06T15:33:12.522Z,6.90
2018-12-06T15:35:41.361Z,5.73
2018-12-06T15:38:12.060Z,6.67
2018-12-06T15:40:41.479Z,6.87
2018-12-06T15:43:10.289Z,8.33
2018-12-06T15:45:39.513Z,7.83
2018-12-06T15:48:08.675Z,8.37
2018-12-06T15:50:37.572Z,8.00
2018-12-06T15:53:06.377Z,7.43
2018-12-06T15:55:35.896Z,9.83
2018-12-06T15:58:05.260Z,8.40
2018-12-06T16:00:34.905Z,7.43
2018-12-06T16:03:04.260Z,7.73
2018-12-06T16:05:32.950Z,7.27
2018-12-06T16:08:01.560Z,7.33
2018-12-06T16:10:30.139Z,6.73
2018-12-06T16:12:59.358Z,6.70
2018-12-06T16:15:27.920Z,9.57
2018-12-06T16:17:56.794Z,5.20
2018-12-06T16:20:25.343Z,5.13
2018-12-06T16:22:54.645Z,4.60
2018-12-06T16:25:23.269Z,4.27
2018-12-06T16:27:52.113Z,5.43
2018-12-06T16:30:20.918Z,12.10
2018-12-06T16:32:49.457Z,11.60
2018-12-06T16:37:51.127Z,6.93
2018-12-06T16:40:19.593Z,6.47
2018-12-06T16:42:48.241Z,6.17
2018-12-06T16:45:17.230Z,6.63
2018-12-06T16:47:47.783Z,6.17
2018-12-06T16:50:16.638Z,6.00
2018-12-06T16:52:46.249Z,6.53
2018-12-06T16:55:15.507Z,6.00
2018-12-06T16:57:44.441Z,5.40
2018-12-06T17:00:15.733Z,5.30
2018-12-06T17:02:44.904Z,4.70
2018-12-06T17:05:13.954Z,4.50
2018-12-06T17:07:43.230Z,5.00
2018-12-06T17:10:11.924Z,4.97
2018-12-06T17:12:40.977Z,4.70
2018-12-06T17:15:10.306Z,4.27
2018-12-06T17:17:39.238Z,4.40
2018-12-06T17:20:09.954Z,3.87
2018-12-06T17:22:39.323Z,4.50
2018-12-06T17:25:10.050Z,4.67
2018-12-06T17:27:39.453Z,4.13
2018-12-06T17:30:09.025Z,4.10
2018-12-06T17:32:37.782Z,4.57
2018-12-06T17:35:06.751Z,4.10
2018-12-06T17:37:35.802Z,3.87
2018-12-06T17:40:06.072Z,3.73
2018-12-06T17:42:34.838Z,4.17
2018-12-06T17:45:04.946Z,4.30
2018-12-06T17:47:34.454Z,6.87
2018-12-06T17:50:03.320Z,4.07
2018-12-06T17:52:33.644Z,4.43
2018-12-06T17:55:02.218Z,4.20
2018-12-06T17:57:31.178Z,5.47
2018-12-06T17:59:59.980Z,4.90
2018-12-06T18:02:29.011Z,4.07
2018-12-06T18:04:58.605Z,4.83
2018-12-06T18:07:27.203Z,5.37
2018-12-06T18:09:55.799Z,5.17
2018-12-06T18:12:25.046Z,6.67
2018-12-06T18:14:54.555Z,4.43
2018-12-06T18:17:23.248Z,5.47
2018-12-06T18:19:52.029Z,4.67
2018-12-06T18:22:20.634Z,5.57
2018-12-06T18:24:49.224Z,5.23
2018-12-06T18:27:17.820Z,4.27
2018-12-06T18:29:46.463Z,5.40
2018-12-06T18:32:15.483Z,12.33
2018-12-06T18:34:45.114Z,8.17
2018-12-06T18:37:13.787Z,5.60
2018-12-06T18:39:42.549Z,5.30
2018-12-06T18:42:11.107Z,4.53
2018-12-06T18:44:39.732Z,4.70
2018-12-06T18:47:09.111Z,5.83
2018-12-06T18:49:37.722Z,5.23
2018-12-06T18:52:06.330Z,6.73
2018-12-06T18:54:34.794Z,7.17
2018-12-06T18:57:03.285Z,6.10
2018-12-06T18:59:31.913Z,4.87
2018-12-06T19:02:00.499Z,5.03
2018-12-06T19:04:29.057Z,4.93
2018-12-06T19:06:58.800Z,4.97
2018-12-06T19:09:27.366Z,3.90
2018-12-06T19:11:55.948Z,5.00
2018-12-06T19:14:24.763Z,4.50
2018-12-06T19:16:53.490Z,4.60
2018-12-06T19:19:22.155Z,3.53
2018-12-06T19:21:50.949Z,4.33
2018-12-06T19:24:19.507Z,4.17
2018-12-06T19:26:48.090Z,4.30
2018-12-06T19:29:16.631Z,4.53
2018-12-06T19:31:45.574Z,4.50
2018-12-06T19:34:14.194Z,4.43
2018-12-06T19:36:42.784Z,5.13
2018-12-06T19:39:11.573Z,5.67
2018-12-06T19:41:40.152Z,4.00
2018-12-06T19:44:08.784Z,4.27
2018-12-06T19:46:37.339Z,5.50
2018-12-06T19:49:06.001Z,5.37
2018-12-06T19:51:34.666Z,4.80
2018-12-06T19:54:03.229Z,4.23
2018-12-06T19:56:31.782Z,5.10
2018-12-06T19:59:00.245Z,4.67
2018-12-06T20:01:28.731Z,5.40
2018-12-06T20:03:57.273Z,4.83
2018-12-06T20:06:25.806Z,4.33
2018-12-06T20:08:55.246Z,4.03
2018-12-06T20:11:23.948Z,5.20
2018-12-06T20:13:54.611Z,5.33
2018-12-06T20:16:23.258Z,4.57
2018-12-06T20:18:51.745Z,5.20
2018-12-06T20:21:20.352Z,6.63
2018-12-06T20:23:48.838Z,6.87
2018-12-06T20:26:17.481Z,6.13
2018-12-06T20:28:46.684Z,5.83
2018-12-06T20:31:15.301Z,5.60
2018-12-06T20:33:44.062Z,13.40
2018-12-06T20:36:13.782Z,4.60
2018-12-06T20:38:42.370Z,5.60
2018-12-06T20:41:10.994Z,4.47
2018-12-06T20:43:39.581Z,5.77
2018-12-06T20:46:09.082Z,4.57
2018-12-06T20:48:37.680Z,5.37
2018-12-06T20:51:06.356Z,5.23
2018-12-06T20:53:36.050Z,5.67
2018-12-06T20:56:04.789Z,5.67
2018-12-06T20:58:33.443Z,4.70
2018-12-06T21:01:03.573Z,5.20
2018-12-06T21:03:32.631Z,4.80
2018-12-06T21:06:01.743Z,4.63
2018-12-06T21:08:30.286Z,4.80
2018-12-06T21:10:58.807Z,4.37
2018-12-06T21:13:27.667Z,4.87
2018-12-06T21:15:56.196Z,4.47
2018-12-06T21:18:24.817Z,4.63
2018-12-06T21:20:53.492Z,4.13
2018-12-06T21:23:22.002Z,4.67
2018-12-06T21:25:51.721Z,4.27
2018-12-06T21:28:20.348Z,4.80
2018-12-06T21:30:50.014Z,4.63
2018-12-06T21:33:18.559Z,5.03
2018-12-06T21:35:55.505Z,4.20
2018-12-06T21:38:24.289Z,4.60
2018-12-06T21:40:52.916Z,3.93
2018-12-06T21:43:21.542Z,4.37
2018-12-06T21:45:50.583Z,4.60
2018-12-06T21:48:19.062Z,4.00
2018-12-06T21:50:48.203Z,4.00
2018-12-06T21:53:16.829Z,4.03
2018-12-06T21:55:45.401Z,3.80
2018-12-06T21:58:14.018Z,3.97
2018-12-06T22:00:43.315Z,3.73
2018-12-06T22:03:12.129Z,3.63
2018-12-06T22:05:40.609Z,3.90
2018-12-06T22:08:09.063Z,4.50
2018-12-06T22:10:37.681Z,4.53
2018-12-06T22:13:06.165Z,3.90
2018-12-06T22:15:34.669Z,5.10
2018-12-06T22:18:03.217Z,4.57
2018-12-06T22:20:31.791Z,4.23
2018-12-06T22:23:01.157Z,4.10
2018-12-06T22:25:29.852Z,5.20
2018-12-06T22:27:58.346Z,4.73
2018-12-06T22:30:26.834Z,4.00
2018-12-06T22:32:55.302Z,3.83
2018-12-06T22:35:23.829Z,4.73
2018-12-06T22:37:52.996Z,4.57
2018-12-06T22:40:21.870Z,4.27
2018-12-06T22:42:50.352Z,4.17
2018-12-06T22:46:27.095Z,3.87
2018-12-06T22:48:55.689Z,3.97
2018-12-06T22:51:24.626Z,4.17
2018-12-06T22:53:55.121Z,4.30
2018-12-06T22:56:24.144Z,5.20
2018-12-06T22:58:52.702Z,4.87
2018-12-06T23:01:26.904Z,5.13
2018-12-06T23:03:55.856Z,5.10
2018-12-06T23:06:24.373Z,5.40
2018-12-06T23:08:52.930Z,5.53
2018-12-06T23:11:21.511Z,6.70
2018-12-06T23:13:50.564Z,7.20
2018-12-06T23:16:19.071Z,7.67
2018-12-06T23:18:47.537Z,7.73
2018-12-06T23:21:16.084Z,7.50
2018-12-06T23:23:44.665Z,7.80
2018-12-06T23:26:13.684Z,8.33
2018-12-06T23:28:42.247Z,7.87
2018-12-06T23:31:10.816Z,8.60
2018-12-06T23:33:39.331Z,7.87
2018-12-06T23:36:08.203Z,8.47
2018-12-06T23:38:37.209Z,8.27
2018-12-06T23:41:05.773Z,7.70
2018-12-06T23:43:34.449Z,8.93
2018-12-06T23:46:03.917Z,7.50
2018-12-06T23:48:32.435Z,9.20
2018-12-06T23:51:12.575Z,8.30
2018-12-06T23:53:42.590Z,8.40
2018-12-06T23:56:11.576Z,8.33
2018-12-06T23:58:40.135Z,9.47
